sensor_id;sensor_type;location;lat;lon;timestamp;temperature;humidity
68658;DHT22;55639;53.480;-2.228;2022-07-29T00:01:26;25.30;42.00
68658;DHT22;55639;53.480;-2.228;2022-07-29T00:03:52;25.30;42.00
68658;DHT22;55639;53.480;-2.228;2022-07-29T00:06:17;25.30;42.00
68658;DHT22;55639;53.480;-2.228;2022-07-29T00:08:43;25.30;42.00
68658;DHT22;55639;53.480;-2.228;2022-07-29T00:11:09;25.30;42.00
68658;DHT22;55639;53.480;-2.228;2022-07-29T00:13:34;25.30;42.00
68658;DHT22;55639;53.480;-2.228;2022-07-29T00:16:00;25.30;42.60
68658;DHT22;55639;53.480;-2.228;2022-07-29T00:18:26;25.30;42.00
68658;DHT22;55639;53.480;-2.228;2022-07-29T00:20:51;25.30;42.00
68658;DHT22;55639;53.480;-2.228;2022-07-29T00:23:17;25.30;42.00
68658;DHT22;55639;53.480;-2.228;2022-07-29T00:25:42;25.30;42.00
68658;DHT22;55639;53.480;-2.228;2022-07-29T00:28:08;25.30;42.00
68658;DHT22;55639;53.480;-2.228;2022-07-29T00:30:33;25.30;42.00
68658;DHT22;55639;53.480;-2.228;2022-07-29T00:32:59;25.30;42.00
68658;DHT22;55639;53.480;-2.228;2022-07-29T00:35:25;25.20;41.90
68658;DHT22;55639;53.480;-2.228;2022-07-29T00:38:11;25.30;42.00
68658;DHT22;55639;53.480;-2.228;2022-07-29T00:40:37;25.30;42.00
68658;DHT22;55639;53.480;-2.228;2022-07-29T00:43:03;25.30;42.00
68658;DHT22;55639;53.480;-2.228;2022-07-29T00:45:28;25.30;42.00
68658;DHT22;55639;53.480;-2.228;2022-07-29T00:47:55;25.30;42.00
68658;DHT22;55639;53.480;-2.228;2022-07-29T00:50:21;25.30;42.00
68658;DHT22;55639;53.480;-2.228;2022-07-29T00:52:47;25.30;42.00
68658;DHT22;55639;53.480;-2.228;2022-07-29T00:55:15;25.30;42.00
68658;DHT22;55639;53.480;-2.228;2022-07-29T00:57:42;25.30;42.00
68658;DHT22;55639;53.480;-2.228;2022-07-29T01:00:20;25.30;42.00
68658;DHT22;55639;53.480;-2.228;2022-07-29T01:02:46;25.30;42.00
68658;DHT22;55639;53.480;-2.228;2022-07-29T01:05:20;25.30;42.00
68658;DHT22;55639;53.480;-2.228;2022-07-29T01:07:47;25.30;42.00
68658;DHT22;55639;53.480;-2.228;2022-07-29T01:10:14;25.30;42.00
68658;DHT22;55639;53.480;-2.228;2022-07-29T01:12:43;25.30;42.00
68658;DHT22;55639;53.480;-2.228;2022-07-29T01:15:10;25.20;42.00
68658;DHT22;55639;53.480;-2.228;2022-07-29T01:31:07;25.20;42.00
68658;DHT22;55639;53.480;-2.228;2022-07-29T01:33:39;25.20;42.00
68658;DHT22;55639;53.480;-2.228;2022-07-29T01:36:40;25.30;42.00
68658;DHT22;55639;53.480;-2.228;2022-07-29T01:39:16;25.20;41.90
68658;DHT22;55639;53.480;-2.228;2022-07-29T01:41:51;25.20;41.90
68658;DHT22;55639;53.480;-2.228;2022-07-29T01:44:31;25.20;41.90
68658;DHT22;55639;53.480;-2.228;2022-07-29T01:47:01;25.20;41.90
68658;DHT22;55639;53.480;-2.228;2022-07-29T01:49:33;25.20;42.00
68658;DHT22;55639;53.480;-2.228;2022-07-29T01:52:05;25.20;41.90
68658;DHT22;55639;53.480;-2.228;2022-07-29T01:54:43;25.20;41.90
68658;DHT22;55639;53.480;-2.228;2022-07-29T01:57:14;25.20;41.90
68658;DHT22;55639;53.480;-2.228;2022-07-29T01:59:43;25.20;41.90
68658;DHT22;55639;53.480;-2.228;2022-07-29T02:02:11;25.20;41.90
68658;DHT22;55639;53.480;-2.228;2022-07-29T02:04:40;25.20;41.90
68658;DHT22;55639;53.480;-2.228;2022-07-29T02:07:07;25.20;41.90
68658;DHT22;55639;53.480;-2.228;2022-07-29T02:09:35;25.20;41.90
68658;DHT22;55639;53.480;-2.228;2022-07-29T02:12:03;25.20;41.90
68658;DHT22;55639;53.480;-2.228;2022-07-29T02:14:34;25.20;41.90
68658;DHT22;55639;53.480;-2.228;2022-07-29T02:17:01;25.20;41.90
68658;DHT22;55639;53.480;-2.228;2022-07-29T02:19:29;25.20;41.90
68658;DHT22;55639;53.480;-2.228;2022-07-29T02:21:58;25.20;41.90
68658;DHT22;55639;53.480;-2.228;2022-07-29T02:24:25;25.20;41.90
68658;DHT22;55639;53.480;-2.228;2022-07-29T02:26:53;25.20;41.90
68658;DHT22;55639;53.480;-2.228;2022-07-29T02:29:23;25.20;41.90
68658;DHT22;55639;53.480;-2.228;2022-07-29T02:31:50;25.20;41.90
68658;DHT22;55639;53.480;-2.228;2022-07-29T02:34:17;25.20;41.90
68658;DHT22;55639;53.480;-2.228;2022-07-29T02:36:44;25.20;41.90
68658;DHT22;55639;53.480;-2.228;2022-07-29T02:39:11;25.20;41.90
68658;DHT22;55639;53.480;-2.228;2022-07-29T02:44:11;25.20;41.80
68658;DHT22;55639;53.480;-2.228;2022-07-29T02:52:22;25.20;41.90
68658;DHT22;55639;53.480;-2.228;2022-07-29T02:55:10;25.20;41.90
68658;DHT22;55639;53.480;-2.228;2022-07-29T02:57:44;25.20;41.90
68658;DHT22;55639;53.480;-2.228;2022-07-29T03:00:12;25.20;41.90
68658;DHT22;55639;53.480;-2.228;2022-07-29T03:02:42;25.20;41.90
68658;DHT22;55639;53.480;-2.228;2022-07-29T03:05:15;25.20;41.90
68658;DHT22;55639;53.480;-2.228;2022-07-29T03:07:44;25.20;41.90
68658;DHT22;55639;53.480;-2.228;2022-07-29T03:10:11;25.20;41.90
68658;DHT22;55639;53.480;-2.228;2022-07-29T03:12:38;25.20;41.90
68658;DHT22;55639;53.480;-2.228;2022-07-29T03:15:04;25.10;41.80
68658;DHT22;55639;53.480;-2.228;2022-07-29T03:17:31;25.20;41.90
68658;DHT22;55639;53.480;-2.228;2022-07-29T03:19:58;25.20;41.90
68658;DHT22;55639;53.480;-2.228;2022-07-29T03:22:24;25.20;41.90
68658;DHT22;55639;53.480;-2.228;2022-07-29T03:24:50;25.20;41.80
68658;DHT22;55639;53.480;-2.228;2022-07-29T03:27:16;25.20;41.80
68658;DHT22;55639;53.480;-2.228;2022-07-29T03:29:41;25.20;41.80
68658;DHT22;55639;53.480;-2.228;2022-07-29T03:32:08;25.20;41.80
68658;DHT22;55639;53.480;-2.228;2022-07-29T03:34:34;25.20;41.80
68658;DHT22;55639;53.480;-2.228;2022-07-29T03:37:00;25.20;41.80
68658;DHT22;55639;53.480;-2.228;2022-07-29T03:39:29;25.10;41.80
68658;DHT22;55639;53.480;-2.228;2022-07-29T03:41:56;25.10;41.80
68658;DHT22;55639;53.480;-2.228;2022-07-29T03:44:24;25.20;41.90
68658;DHT22;55639;53.480;-2.228;2022-07-29T03:46:52;25.20;41.80
68658;DHT22;55639;53.480;-2.228;2022-07-29T03:49:20;25.10;41.80
68658;DHT22;55639;53.480;-2.228;2022-07-29T03:51:47;25.10;41.80
68658;DHT22;55639;53.480;-2.228;2022-07-29T03:54:13;25.10;41.70
68658;DHT22;55639;53.480;-2.228;2022-07-29T03:56:42;25.10;41.80
68658;DHT22;55639;53.480;-2.228;2022-07-29T03:59:11;25.10;41.80
68658;DHT22;55639;53.480;-2.228;2022-07-29T04:01:38;25.10;41.80
68658;DHT22;55639;53.480;-2.228;2022-07-29T04:04:05;25.10;41.80
68658;DHT22;55639;53.480;-2.228;2022-07-29T04:06:50;25.10;41.80
68658;DHT22;55639;53.480;-2.228;2022-07-29T04:09:16;25.10;41.80
68658;DHT22;55639;53.480;-2.228;2022-07-29T04:11:42;25.10;41.80
68658;DHT22;55639;53.480;-2.228;2022-07-29T04:14:08;25.10;41.80
68658;DHT22;55639;53.480;-2.228;2022-07-29T04:16:34;25.10;41.80
68658;DHT22;55639;53.480;-2.228;2022-07-29T04:18:59;25.10;41.80
68658;DHT22;55639;53.480;-2.228;2022-07-29T04:21:25;25.10;41.80
68658;DHT22;55639;53.480;-2.228;2022-07-29T04:23:51;25.10;41.80
68658;DHT22;55639;53.480;-2.228;2022-07-29T04:26:17;25.10;41.90
68658;DHT22;55639;53.480;-2.228;2022-07-29T04:28:43;25.10;41.80
68658;DHT22;55639;53.480;-2.228;2022-07-29T04:31:10;25.10;41.80
68658;DHT22;55639;53.480;-2.228;2022-07-29T04:33:36;25.10;41.80
68658;DHT22;55639;53.480;-2.228;2022-07-29T04:36:01;25.10;41.80
68658;DHT22;55639;53.480;-2.228;2022-07-29T04:38:27;25.10;41.90
68658;DHT22;55639;53.480;-2.228;2022-07-29T04:40:53;25.10;41.80
68658;DHT22;55639;53.480;-2.228;2022-07-29T04:43:18;25.10;41.80
68658;DHT22;55639;53.480;-2.228;2022-07-29T04:45:44;25.10;41.80
68658;DHT22;55639;53.480;-2.228;2022-07-29T04:48:10;25.10;41.80
68658;DHT22;55639;53.480;-2.228;2022-07-29T04:50:38;25.10;41.80
68658;DHT22;55639;53.480;-2.228;2022-07-29T04:53:04;25.10;41.90
68658;DHT22;55639;53.480;-2.228;2022-07-29T04:55:29;25.10;41.80
68658;DHT22;55639;53.480;-2.228;2022-07-29T04:57:55;25.10;41.90
68658;DHT22;55639;53.480;-2.228;2022-07-29T05:00:20;25.10;41.90
68658;DHT22;55639;53.480;-2.228;2022-07-29T05:02:48;25.10;41.80
68658;DHT22;55639;53.480;-2.228;2022-07-29T05:05:14;25.10;41.80
68658;DHT22;55639;53.480;-2.228;2022-07-29T05:07:40;25.10;41.90
68658;DHT22;55639;53.480;-2.228;2022-07-29T05:10:06;25.10;41.90
68658;DHT22;55639;53.480;-2.228;2022-07-29T05:12:31;25.10;41.90
68658;DHT22;55639;53.480;-2.228;2022-07-29T05:14:57;25.00;41.80
68658;DHT22;55639;53.480;-2.228;2022-07-29T05:17:23;25.00;41.80
68658;DHT22;55639;53.480;-2.228;2022-07-29T05:19:49;25.10;41.90
68658;DHT22;55639;53.480;-2.228;2022-07-29T05:22:17;25.10;41.90
68658;DHT22;55639;53.480;-2.228;2022-07-29T05:24:43;25.10;41.90
68658;DHT22;55639;53.480;-2.228;2022-07-29T05:27:09;25.00;41.80
68658;DHT22;55639;53.480;-2.228;2022-07-29T05:29:34;25.00;41.80
68658;DHT22;55639;53.480;-2.228;2022-07-29T05:32:00;25.00;41.80
68658;DHT22;55639;53.480;-2.228;2022-07-29T05:34:26;25.00;41.80
68658;DHT22;55639;53.480;-2.228;2022-07-29T05:36:51;25.00;41.80
68658;DHT22;55639;53.480;-2.228;2022-07-29T05:39:17;25.00;41.90
68658;DHT22;55639;53.480;-2.228;2022-07-29T05:41:43;25.00;41.80
68658;DHT22;55639;53.480;-2.228;2022-07-29T05:44:08;25.00;41.90
68658;DHT22;55639;53.480;-2.228;2022-07-29T05:46:34;25.00;41.90
68658;DHT22;55639;53.480;-2.228;2022-07-29T05:48:59;25.00;41.80
68658;DHT22;55639;53.480;-2.228;2022-07-29T05:51:25;25.00;41.80
68658;DHT22;55639;53.480;-2.228;2022-07-29T05:53:51;25.00;41.90
68658;DHT22;55639;53.480;-2.228;2022-07-29T05:56:17;25.00;41.90
68658;DHT22;55639;53.480;-2.228;2022-07-29T05:58:42;25.00;41.90
68658;DHT22;55639;53.480;-2.228;2022-07-29T06:01:08;25.00;41.90
68658;DHT22;55639;53.480;-2.228;2022-07-29T06:03:35;25.00;41.90
68658;DHT22;55639;53.480;-2.228;2022-07-29T06:06:03;25.00;41.80
68658;DHT22;55639;53.480;-2.228;2022-07-29T06:08:29;25.00;41.90
68658;DHT22;55639;53.480;-2.228;2022-07-29T06:10:55;25.00;41.90
68658;DHT22;55639;53.480;-2.228;2022-07-29T06:13:20;25.00;41.90
68658;DHT22;55639;53.480;-2.228;2022-07-29T06:15:46;25.00;41.90
68658;DHT22;55639;53.480;-2.228;2022-07-29T06:18:12;25.00;41.90
68658;DHT22;55639;53.480;-2.228;2022-07-29T06:20:38;25.00;41.90
68658;DHT22;55639;53.480;-2.228;2022-07-29T06:23:04;25.00;41.90
68658;DHT22;55639;53.480;-2.228;2022-07-29T06:25:30;25.00;41.90
68658;DHT22;55639;53.480;-2.228;2022-07-29T06:27:56;25.00;41.90
68658;DHT22;55639;53.480;-2.228;2022-07-29T06:30:22;25.00;41.90
68658;DHT22;55639;53.480;-2.228;2022-07-29T06:32:47;25.00;42.00
68658;DHT22;55639;53.480;-2.228;2022-07-29T06:35:14;25.00;41.90
68658;DHT22;55639;53.480;-2.228;2022-07-29T06:37:40;25.00;41.90
68658;DHT22;55639;53.480;-2.228;2022-07-29T06:40:06;25.00;41.90
68658;DHT22;55639;53.480;-2.228;2022-07-29T06:42:51;25.00;41.90
68658;DHT22;55639;53.480;-2.228;2022-07-29T06:45:16;25.00;41.90
68658;DHT22;55639;53.480;-2.228;2022-07-29T06:47:42;25.00;41.90
68658;DHT22;55639;53.480;-2.228;2022-07-29T06:50:08;25.00;41.90
68658;DHT22;55639;53.480;-2.228;2022-07-29T06:52:37;25.00;41.90
68658;DHT22;55639;53.480;-2.228;2022-07-29T06:55:03;25.00;41.90
68658;DHT22;55639;53.480;-2.228;2022-07-29T06:57:28;25.00;41.90
68658;DHT22;55639;53.480;-2.228;2022-07-29T06:59:56;25.00;41.90
68658;DHT22;55639;53.480;-2.228;2022-07-29T07:02:22;25.00;41.90
68658;DHT22;55639;53.480;-2.228;2022-07-29T07:04:48;25.00;41.90
68658;DHT22;55639;53.480;-2.228;2022-07-29T07:07:14;25.00;41.90
68658;DHT22;55639;53.480;-2.228;2022-07-29T07:09:39;25.00;42.00
68658;DHT22;55639;53.480;-2.228;2022-07-29T07:12:05;25.00;41.90
68658;DHT22;55639;53.480;-2.228;2022-07-29T07:14:31;25.00;42.00
68658;DHT22;55639;53.480;-2.228;2022-07-29T07:16:57;25.00;42.00
68658;DHT22;55639;53.480;-2.228;2022-07-29T07:19:22;25.00;42.00
68658;DHT22;55639;53.480;-2.228;2022-07-29T07:21:48;25.00;42.00
68658;DHT22;55639;53.480;-2.228;2022-07-29T07:24:14;25.00;42.00
68658;DHT22;55639;53.480;-2.228;2022-07-29T07:26:39;25.00;42.00
68658;DHT22;55639;53.480;-2.228;2022-07-29T07:29:06;25.00;42.00
68658;DHT22;55639;53.480;-2.228;2022-07-29T07:31:31;25.00;42.00
68658;DHT22;55639;53.480;-2.228;2022-07-29T07:33:57;25.00;42.00
68658;DHT22;55639;53.480;-2.228;2022-07-29T07:36:24;25.00;42.60
68658;DHT22;55639;53.480;-2.228;2022-07-29T07:38:50;25.00;42.00
68658;DHT22;55639;53.480;-2.228;2022-07-29T07:41:15;25.00;42.00
68658;DHT22;55639;53.480;-2.228;2022-07-29T07:43:41;25.00;42.10
68658;DHT22;55639;53.480;-2.228;2022-07-29T07:46:07;25.00;42.00
68658;DHT22;55639;53.480;-2.228;2022-07-29T07:48:32;25.00;42.10
68658;DHT22;55639;53.480;-2.228;2022-07-29T07:51:00;25.00;42.10
68658;DHT22;55639;53.480;-2.228;2022-07-29T07:53:26;25.00;42.00
68658;DHT22;55639;53.480;-2.228;2022-07-29T07:55:51;25.00;42.10
68658;DHT22;55639;53.480;-2.228;2022-07-29T07:58:17;25.00;42.00
68658;DHT22;55639;53.480;-2.228;2022-07-29T08:00:43;25.00;42.00
68658;DHT22;55639;53.480;-2.228;2022-07-29T08:03:08;25.00;42.00
68658;DHT22;55639;53.480;-2.228;2022-07-29T08:05:38;25.00;42.00
68658;DHT22;55639;53.480;-2.228;2022-07-29T08:08:04;25.00;42.00
68658;DHT22;55639;53.480;-2.228;2022-07-29T08:10:29;25.00;42.00
68658;DHT22;55639;53.480;-2.228;2022-07-29T08:13:13;25.00;42.00
68658;DHT22;55639;53.480;-2.228;2022-07-29T08:15:40;25.00;42.00
68658;DHT22;55639;53.480;-2.228;2022-07-29T08:18:07;25.00;42.00
68658;DHT22;55639;53.480;-2.228;2022-07-29T08:20:33;25.00;42.00
68658;DHT22;55639;53.480;-2.228;2022-07-29T08:23:01;25.00;42.00
68658;DHT22;55639;53.480;-2.228;2022-07-29T08:25:26;25.00;42.00
68658;DHT22;55639;53.480;-2.228;2022-07-29T08:27:52;25.00;41.90
68658;DHT22;55639;53.480;-2.228;2022-07-29T08:30:18;25.00;41.90
68658;DHT22;55639;53.480;-2.228;2022-07-29T08:32:43;25.00;42.00
68658;DHT22;55639;53.480;-2.228;2022-07-29T08:35:09;25.00;41.90
68658;DHT22;55639;53.480;-2.228;2022-07-29T08:37:35;25.00;41.90
68658;DHT22;55639;53.480;-2.228;2022-07-29T08:40:01;25.00;41.90
68658;DHT22;55639;53.480;-2.228;2022-07-29T08:42:26;25.00;41.90
68658;DHT22;55639;53.480;-2.228;2022-07-29T08:45:02;25.00;41.90
68658;DHT22;55639;53.480;-2.228;2022-07-29T08:47:28;25.00;41.90
68658;DHT22;55639;53.480;-2.228;2022-07-29T08:49:54;25.00;41.90
68658;DHT22;55639;53.480;-2.228;2022-07-29T08:52:20;25.00;41.90
68658;DHT22;55639;53.480;-2.228;2022-07-29T08:54:47;25.00;41.90
68658;DHT22;55639;53.480;-2.228;2022-07-29T08:57:14;25.10;41.90
68658;DHT22;55639;53.480;-2.228;2022-07-29T08:59:42;25.00;41.90
68658;DHT22;55639;53.480;-2.228;2022-07-29T09:02:19;25.10;41.90
68658;DHT22;55639;53.480;-2.228;2022-07-29T09:04:44;25.10;41.90
68658;DHT22;55639;53.480;-2.228;2022-07-29T09:07:14;25.10;41.90
68658;DHT22;55639;53.480;-2.228;2022-07-29T09:09:40;25.10;41.90
68658;DHT22;55639;53.480;-2.228;2022-07-29T09:12:06;25.10;41.90
68658;DHT22;55639;53.480;-2.228;2022-07-29T09:14:33;25.00;41.90
68658;DHT22;55639;53.480;-2.228;2022-07-29T09:16:59;25.10;41.90
68658;DHT22;55639;53.480;-2.228;2022-07-29T09:19:32;25.10;41.90
68658;DHT22;55639;53.480;-2.228;2022-07-29T09:22:03;25.10;41.90
68658;DHT22;55639;53.480;-2.228;2022-07-29T09:24:41;25.10;41.90
68658;DHT22;55639;53.480;-2.228;2022-07-29T09:27:18;25.10;41.90
68658;DHT22;55639;53.480;-2.228;2022-07-29T09:29:45;25.10;41.90
68658;DHT22;55639;53.480;-2.228;2022-07-29T09:32:11;25.10;41.90
68658;DHT22;55639;53.480;-2.228;2022-07-29T09:34:36;25.10;41.90
68658;DHT22;55639;53.480;-2.228;2022-07-29T09:37:03;25.10;41.90
68658;DHT22;55639;53.480;-2.228;2022-07-29T09:39:37;25.10;41.90
68658;DHT22;55639;53.480;-2.228;2022-07-29T09:42:06;25.10;41.90
68658;DHT22;55639;53.480;-2.228;2022-07-29T09:44:50;25.20;41.90
68658;DHT22;55639;53.480;-2.228;2022-07-29T09:47:17;25.20;42.50
68658;DHT22;55639;53.480;-2.228;2022-07-29T09:49:57;25.20;41.90
68658;DHT22;55639;53.480;-2.228;2022-07-29T09:52:24;25.20;41.90
68658;DHT22;55639;53.480;-2.228;2022-07-29T09:54:50;25.20;41.90
68658;DHT22;55639;53.480;-2.228;2022-07-29T09:57:27;25.20;41.90
68658;DHT22;55639;53.480;-2.228;2022-07-29T10:02:34;25.20;41.90
68658;DHT22;55639;53.480;-2.228;2022-07-29T10:05:01;25.20;41.90
68658;DHT22;55639;53.480;-2.228;2022-07-29T10:07:46;25.20;41.90
68658;DHT22;55639;53.480;-2.228;2022-07-29T10:10:22;25.20;41.80
68658;DHT22;55639;53.480;-2.228;2022-07-29T10:12:56;25.20;41.90
68658;DHT22;55639;53.480;-2.228;2022-07-29T10:15:24;25.20;41.80
68658;DHT22;55639;53.480;-2.228;2022-07-29T10:17:52;25.20;41.80
68658;DHT22;55639;53.480;-2.228;2022-07-29T10:20:19;25.20;41.80
68658;DHT22;55639;53.480;-2.228;2022-07-29T10:22:46;25.20;42.40
68658;DHT22;55639;53.480;-2.228;2022-07-29T10:25:12;25.20;41.80
68658;DHT22;55639;53.480;-2.228;2022-07-29T10:27:39;25.20;41.80
68658;DHT22;55639;53.480;-2.228;2022-07-29T10:30:05;25.20;41.80
68658;DHT22;55639;53.480;-2.228;2022-07-29T10:44:23;25.30;41.90
68658;DHT22;55639;53.480;-2.228;2022-07-29T10:46:51;25.30;41.90
68658;DHT22;55639;53.480;-2.228;2022-07-29T10:59:50;25.30;41.80
68658;DHT22;55639;53.480;-2.228;2022-07-29T11:07:30;25.30;41.70
68658;DHT22;55639;53.480;-2.228;2022-07-29T11:15:08;25.30;41.70
68658;DHT22;55639;53.480;-2.228;2022-07-29T11:20:48;25.40;41.70
68658;DHT22;55639;53.480;-2.228;2022-07-29T11:23:25;25.40;41.70
68658;DHT22;55639;53.480;-2.228;2022-07-29T11:39:39;25.40;41.60
68658;DHT22;55639;53.480;-2.228;2022-07-29T11:45:05;25.50;41.70
68658;DHT22;55639;53.480;-2.228;2022-07-29T11:47:32;25.50;41.60
68658;DHT22;55639;53.480;-2.228;2022-07-29T11:50:01;25.50;41.70
68658;DHT22;55639;53.480;-2.228;2022-07-29T11:52:54;25.50;41.70
68658;DHT22;55639;53.480;-2.228;2022-07-29T11:55:21;25.50;42.20
68658;DHT22;55639;53.480;-2.228;2022-07-29T11:57:56;25.50;41.70
68658;DHT22;55639;53.480;-2.228;2022-07-29T12:03:01;25.50;41.60
68658;DHT22;55639;53.480;-2.228;2022-07-29T12:05:32;25.50;41.60
68658;DHT22;55639;53.480;-2.228;2022-07-29T12:08:08;25.50;41.60
68658;DHT22;55639;53.480;-2.228;2022-07-29T12:10:34;25.50;41.60
68658;DHT22;55639;53.480;-2.228;2022-07-29T12:13:00;25.50;41.60
68658;DHT22;55639;53.480;-2.228;2022-07-29T12:15:26;25.50;41.50
68658;DHT22;55639;53.480;-2.228;2022-07-29T12:17:52;25.50;41.50
68658;DHT22;55639;53.480;-2.228;2022-07-29T12:20:28;25.50;41.50
68658;DHT22;55639;53.480;-2.228;2022-07-29T12:22:55;25.50;41.50
68658;DHT22;55639;53.480;-2.228;2022-07-29T12:25:23;25.50;41.50
68658;DHT22;55639;53.480;-2.228;2022-07-29T12:28:00;25.60;41.60
68658;DHT22;55639;53.480;-2.228;2022-07-29T12:30:40;25.60;41.50
68658;DHT22;55639;53.480;-2.228;2022-07-29T12:33:18;25.60;41.50
68658;DHT22;55639;53.480;-2.228;2022-07-29T12:35:46;25.60;41.50
68658;DHT22;55639;53.480;-2.228;2022-07-29T12:38:12;25.60;41.50
68658;DHT22;55639;53.480;-2.228;2022-07-29T12:40:38;25.60;41.50
68658;DHT22;55639;53.480;-2.228;2022-07-29T12:43:09;25.60;41.50
68658;DHT22;55639;53.480;-2.228;2022-07-29T12:45:44;25.60;41.50
68658;DHT22;55639;53.480;-2.228;2022-07-29T12:48:10;25.60;41.50
68658;DHT22;55639;53.480;-2.228;2022-07-29T12:50:53;25.60;41.50
68658;DHT22;55639;53.480;-2.228;2022-07-29T12:53:19;25.60;41.40
68658;DHT22;55639;53.480;-2.228;2022-07-29T12:55:48;25.70;41.50
68658;DHT22;55639;53.480;-2.228;2022-07-29T12:58:38;25.70;41.50
68658;DHT22;55639;53.480;-2.228;2022-07-29T13:01:17;25.70;41.50
68658;DHT22;55639;53.480;-2.228;2022-07-29T13:03:48;25.70;41.50
68658;DHT22;55639;53.480;-2.228;2022-07-29T13:11:38;25.80;41.50
68658;DHT22;55639;53.480;-2.228;2022-07-29T13:14:06;25.80;41.50
68658;DHT22;55639;53.480;-2.228;2022-07-29T13:16:32;25.80;41.40
68658;DHT22;55639;53.480;-2.228;2022-07-29T13:19:11;25.80;41.40
68658;DHT22;55639;53.480;-2.228;2022-07-29T13:21:38;25.80;41.40
68658;DHT22;55639;53.480;-2.228;2022-07-29T13:24:08;25.80;41.30
68658;DHT22;55639;53.480;-2.228;2022-07-29T13:26:34;25.90;41.40
68658;DHT22;55639;53.480;-2.228;2022-07-29T13:29:00;25.90;41.40
68658;DHT22;55639;53.480;-2.228;2022-07-29T13:31:26;25.90;41.30
68658;DHT22;55639;53.480;-2.228;2022-07-29T13:33:51;25.90;41.30
68658;DHT22;55639;53.480;-2.228;2022-07-29T13:36:17;25.90;41.30
68658;DHT22;55639;53.480;-2.228;2022-07-29T13:38:43;25.90;41.30
68658;DHT22;55639;53.480;-2.228;2022-07-29T13:41:09;25.90;41.30
68658;DHT22;55639;53.480;-2.228;2022-07-29T13:43:35;25.90;41.30
68658;DHT22;55639;53.480;-2.228;2022-07-29T13:46:01;25.90;41.30
68658;DHT22;55639;53.480;-2.228;2022-07-29T13:48:26;25.90;41.30
68658;DHT22;55639;53.480;-2.228;2022-07-29T13:50:52;25.90;41.30
68658;DHT22;55639;53.480;-2.228;2022-07-29T13:53:18;26.00;41.40
68658;DHT22;55639;53.480;-2.228;2022-07-29T13:55:43;26.00;41.30
68658;DHT22;55639;53.480;-2.228;2022-07-29T13:58:09;26.00;41.30
68658;DHT22;55639;53.480;-2.228;2022-07-29T14:00:35;26.00;41.30
68658;DHT22;55639;53.480;-2.228;2022-07-29T14:03:00;26.00;41.20
68658;DHT22;55639;53.480;-2.228;2022-07-29T14:05:26;26.00;41.20
68658;DHT22;55639;53.480;-2.228;2022-07-29T14:07:52;26.10;41.20
68658;DHT22;55639;53.480;-2.228;2022-07-29T14:10:17;26.10;41.20
68658;DHT22;55639;53.480;-2.228;2022-07-29T14:12:43;26.00;41.20
68658;DHT22;55639;53.480;-2.228;2022-07-29T14:15:09;26.10;41.20
68658;DHT22;55639;53.480;-2.228;2022-07-29T14:17:34;26.10;41.20
68658;DHT22;55639;53.480;-2.228;2022-07-29T14:20:00;26.00;41.20
68658;DHT22;55639;53.480;-2.228;2022-07-29T14:22:26;26.10;41.20
68658;DHT22;55639;53.480;-2.228;2022-07-29T14:24:52;26.10;41.20
68658;DHT22;55639;53.480;-2.228;2022-07-29T14:27:17;26.10;41.20
68658;DHT22;55639;53.480;-2.228;2022-07-29T14:29:43;26.10;41.20
68658;DHT22;55639;53.480;-2.228;2022-07-29T14:32:09;26.10;41.20
68658;DHT22;55639;53.480;-2.228;2022-07-29T14:34:36;26.10;41.20
68658;DHT22;55639;53.480;-2.228;2022-07-29T14:37:02;26.10;41.20
68658;DHT22;55639;53.480;-2.228;2022-07-29T14:39:30;26.10;41.20
68658;DHT22;55639;53.480;-2.228;2022-07-29T14:41:56;26.10;41.20
68658;DHT22;55639;53.480;-2.228;2022-07-29T14:44:22;26.10;41.20
68658;DHT22;55639;53.480;-2.228;2022-07-29T14:46:47;26.10;41.20
68658;DHT22;55639;53.480;-2.228;2022-07-29T14:49:13;26.10;41.20
68658;DHT22;55639;53.480;-2.228;2022-07-29T14:51:38;26.10;41.20
68658;DHT22;55639;53.480;-2.228;2022-07-29T14:54:04;26.10;41.20
68658;DHT22;55639;53.480;-2.228;2022-07-29T14:56:30;26.10;41.30
68658;DHT22;55639;53.480;-2.228;2022-07-29T14:58:58;26.10;41.30
68658;DHT22;55639;53.480;-2.228;2022-07-29T15:01:24;26.10;41.30
68658;DHT22;55639;53.480;-2.228;2022-07-29T15:03:51;26.10;41.30
68658;DHT22;55639;53.480;-2.228;2022-07-29T15:06:16;26.10;41.30
68658;DHT22;55639;53.480;-2.228;2022-07-29T15:08:42;26.10;41.30
68658;DHT22;55639;53.480;-2.228;2022-07-29T15:11:07;26.10;41.30
68658;DHT22;55639;53.480;-2.228;2022-07-29T15:13:33;26.10;41.30
68658;DHT22;55639;53.480;-2.228;2022-07-29T15:15:59;26.10;41.30
68658;DHT22;55639;53.480;-2.228;2022-07-29T15:18:25;26.10;41.30
68658;DHT22;55639;53.480;-2.228;2022-07-29T15:20:51;26.10;41.90
68658;DHT22;55639;53.480;-2.228;2022-07-29T15:23:16;26.10;41.40
68658;DHT22;55639;53.480;-2.228;2022-07-29T15:25:42;26.10;41.40
68658;DHT22;55639;53.480;-2.228;2022-07-29T15:28:08;26.10;41.40
68658;DHT22;55639;53.480;-2.228;2022-07-29T15:30:34;26.10;41.40
68658;DHT22;55639;53.480;-2.228;2022-07-29T15:33:02;26.10;41.40
68658;DHT22;55639;53.480;-2.228;2022-07-29T15:35:28;26.10;41.40
68658;DHT22;55639;53.480;-2.228;2022-07-29T15:37:53;26.10;41.40
68658;DHT22;55639;53.480;-2.228;2022-07-29T15:40:19;26.10;41.40
68658;DHT22;55639;53.480;-2.228;2022-07-29T15:42:45;26.10;41.40
68658;DHT22;55639;53.480;-2.228;2022-07-29T15:45:10;26.10;41.40
68658;DHT22;55639;53.480;-2.228;2022-07-29T15:47:36;26.10;41.40
68658;DHT22;55639;53.480;-2.228;2022-07-29T15:50:02;26.10;41.40
68658;DHT22;55639;53.480;-2.228;2022-07-29T15:52:28;26.10;41.40
68658;DHT22;55639;53.480;-2.228;2022-07-29T15:54:54;26.10;41.40
68658;DHT22;55639;53.480;-2.228;2022-07-29T15:57:21;26.10;42.00
68658;DHT22;55639;53.480;-2.228;2022-07-29T15:59:47;26.10;41.40
68658;DHT22;55639;53.480;-2.228;2022-07-29T16:02:12;26.10;41.50
68658;DHT22;55639;53.480;-2.228;2022-07-29T16:04:38;26.10;41.40
68658;DHT22;55639;53.480;-2.228;2022-07-29T16:07:04;26.10;41.40
68658;DHT22;55639;53.480;-2.228;2022-07-29T16:09:29;26.10;41.40
68658;DHT22;55639;53.480;-2.228;2022-07-29T16:11:55;26.10;41.40
68658;DHT22;55639;53.480;-2.228;2022-07-29T16:14:21;26.10;41.40
68658;DHT22;55639;53.480;-2.228;2022-07-29T16:16:47;26.10;41.50
68658;DHT22;55639;53.480;-2.228;2022-07-29T16:19:13;26.10;41.50
68658;DHT22;55639;53.480;-2.228;2022-07-29T16:21:39;26.10;41.50
68658;DHT22;55639;53.480;-2.228;2022-07-29T16:24:06;26.10;41.50
68658;DHT22;55639;53.480;-2.228;2022-07-29T16:26:32;26.10;41.40
68658;DHT22;55639;53.480;-2.228;2022-07-29T16:28:58;26.10;41.40
68658;DHT22;55639;53.480;-2.228;2022-07-29T16:31:24;26.10;41.50
68658;DHT22;55639;53.480;-2.228;2022-07-29T16:33:50;26.10;41.50
68658;DHT22;55639;53.480;-2.228;2022-07-29T16:36:17;26.10;41.50
68658;DHT22;55639;53.480;-2.228;2022-07-29T16:38:43;26.10;41.40
68658;DHT22;55639;53.480;-2.228;2022-07-29T16:41:09;26.10;41.50
68658;DHT22;55639;53.480;-2.228;2022-07-29T16:43:34;26.10;41.50